createdAt,value
2019-03-30T00:01:17.011Z,38.97
2019-03-30T00:03:46.678Z,40.57
2019-03-30T00:06:17.256Z,39.83
2019-03-30T00:08:48.589Z,43.33
2019-03-30T00:11:18.389Z,42.90
2019-03-30T00:13:47.633Z,41.87
2019-03-30T00:16:17.284Z,40.90
2019-03-30T00:18:46.666Z,37.23
2019-03-30T00:21:22.927Z,38.30
2019-03-30T00:23:54.217Z,39.93
2019-03-30T00:26:28.696Z,40.57
2019-03-30T00:28:58.657Z,44.90
2019-03-30T00:31:34.066Z,43.03
2019-03-30T00:34:04.422Z,40.03
2019-03-30T00:36:36.994Z,39.73
2019-03-30T00:39:07.652Z,43.23
2019-03-30T00:41:43.985Z,42.70
2019-03-30T00:44:13.976Z,37.47
2019-03-30T00:46:44.675Z,38.27
2019-03-30T00:49:15.415Z,38.87
2019-03-30T00:51:47.981Z,40.97
2019-03-30T00:54:18.165Z,39.43
2019-03-30T00:56:47.890Z,39.50
2019-03-30T00:59:18.277Z,39.30
2019-03-30T01:01:48.433Z,38.70
2019-03-30T01:04:18.416Z,40.80
2019-03-30T01:06:48.909Z,40.43
2019-03-30T01:09:18.553Z,38.57
2019-03-30T01:11:48.114Z,37.73
2019-03-30T01:14:18.066Z,39.60
2019-03-30T01:16:47.570Z,39.50
2019-03-30T01:19:17.247Z,39.13
2019-03-30T01:21:47.199Z,39.53
2019-03-30T01:24:16.314Z,38.77
2019-03-30T01:26:45.407Z,41.20
2019-03-30T01:29:14.652Z,39.67
2019-03-30T01:31:44.295Z,41.67
2019-03-30T01:34:13.612Z,38.83
2019-03-30T01:36:43.049Z,42.63
2019-03-30T01:39:13.259Z,40.93
2019-03-30T01:41:43.443Z,44.20
2019-03-30T01:44:13.170Z,43.50
2019-03-30T01:46:43.401Z,40.93
2019-03-30T01:49:13.584Z,41.73
2019-03-30T01:51:43.713Z,41.30
2019-03-30T01:54:13.353Z,44.70
2019-03-30T01:56:44.000Z,45.27
2019-03-30T01:59:16.416Z,43.53
2019-03-30T02:01:46.432Z,44.17
2019-03-30T02:04:17.335Z,45.27
2019-03-30T02:06:47.624Z,44.10
2019-03-30T02:09:17.653Z,45.47
2019-03-30T02:11:50.571Z,45.37
2019-03-30T02:14:21.001Z,45.13
2019-03-30T02:16:50.658Z,45.70
2019-03-30T02:19:20.032Z,46.23
2019-03-30T02:21:49.258Z,46.97
2019-03-30T02:24:19.991Z,43.27
2019-03-30T02:26:49.652Z,45.03
2019-03-30T02:29:21.266Z,45.17
2019-03-30T02:31:54.405Z,48.47
2019-03-30T02:34:23.702Z,46.20
2019-03-30T02:36:52.838Z,46.43
2019-03-30T02:39:22.005Z,46.50
2019-03-30T02:41:51.314Z,49.00
2019-03-30T02:44:20.900Z,50.90
2019-03-30T02:46:50.034Z,47.43
2019-03-30T02:49:20.344Z,47.33
2019-03-30T02:51:49.554Z,50.17
2019-03-30T02:54:18.670Z,50.60
2019-03-30T02:56:49.495Z,53.27
2019-03-30T02:59:18.922Z,48.07
2019-03-30T03:01:48.179Z,53.27
2019-03-30T03:04:17.348Z,51.13
2019-03-30T03:06:46.855Z,52.10
2019-03-30T03:09:16.236Z,54.73
2019-03-30T03:11:46.713Z,54.87
2019-03-30T03:14:16.031Z,51.93
2019-03-30T03:16:45.317Z,51.77
2019-03-30T03:19:14.458Z,48.60
2019-03-30T03:21:44.275Z,48.63
2019-03-30T03:24:13.630Z,49.23
2019-03-30T03:26:43.067Z,48.83
2019-03-30T03:29:13.214Z,47.40
2019-03-30T03:31:42.351Z,47.03
2019-03-30T03:34:11.474Z,48.93
2019-03-30T03:36:40.634Z,50.70
2019-03-30T03:39:09.776Z,48.73
2019-03-30T03:41:39.463Z,48.30
2019-03-30T03:44:08.873Z,50.10
2019-03-30T03:46:38.037Z,45.93
2019-03-30T03:49:07.499Z,48.07
2019-03-30T03:51:37.210Z,46.13
2019-03-30T03:54:07.620Z,49.07
2019-03-30T03:56:38.477Z,49.50
2019-03-30T03:59:08.147Z,47.67
2019-03-30T04:01:39.066Z,50.63
2019-03-30T04:04:09.538Z,49.57
2019-03-30T04:06:39.552Z,52.23
2019-03-30T04:09:09.091Z,53.80
2019-03-30T04:11:40.299Z,55.10
2019-03-30T04:14:10.116Z,51.87
2019-03-30T04:16:39.360Z,51.20
2019-03-30T04:19:08.594Z,52.57
2019-03-30T04:21:44.317Z,48.87
2019-03-30T04:24:10.160Z,49.83
2019-03-30T04:26:39.483Z,51.93
2019-03-30T04:29:08.885Z,55.37
2019-03-30T04:31:38.244Z,54.13
2019-03-30T04:34:08.453Z,52.30
2019-03-30T04:36:38.076Z,51.63
2019-03-30T04:39:08.714Z,52.00
2019-03-30T04:41:38.747Z,54.27
2019-03-30T04:44:08.023Z,51.70
2019-03-30T04:46:39.525Z,52.23
2019-03-30T04:49:08.748Z,53.83
2019-03-30T04:51:38.162Z,54.00
2019-03-30T04:54:07.716Z,51.57
2019-03-30T04:56:36.884Z,49.50
2019-03-30T04:59:06.583Z,48.10
2019-03-30T05:01:35.739Z,46.60
2019-03-30T05:04:05.550Z,44.63
2019-03-30T05:06:34.831Z,45.37
2019-03-30T05:09:04.441Z,42.63
2019-03-30T05:11:35.020Z,43.67
2019-03-30T05:14:05.630Z,44.07
2019-03-30T05:16:34.781Z,40.63
2019-03-30T05:19:04.191Z,40.97
2019-03-30T05:21:33.442Z,42.20
2019-03-30T05:24:02.616Z,39.17
2019-03-30T05:26:31.979Z,38.10
2019-03-30T05:29:01.195Z,37.93
2019-03-30T05:31:30.494Z,36.30
2019-03-30T05:33:59.656Z,35.27
2019-03-30T05:36:28.821Z,34.13
2019-03-30T05:38:58.158Z,30.77
2019-03-30T05:41:27.493Z,31.77
2019-03-30T05:43:57.232Z,28.07
2019-03-30T05:46:28.348Z,31.20
2019-03-30T05:48:58.204Z,29.47
2019-03-30T05:51:27.550Z,28.13
2019-03-30T05:53:56.808Z,28.70
2019-03-30T05:56:26.674Z,26.97
2019-03-30T05:58:55.941Z,26.90
2019-03-30T06:01:25.044Z,25.67
2019-03-30T06:03:54.373Z,25.63
2019-03-30T06:06:24.961Z,25.83
2019-03-30T06:08:54.223Z,24.60
2019-03-30T06:11:23.821Z,25.07
2019-03-30T06:13:54.034Z,22.83
2019-03-30T06:16:23.274Z,21.93
2019-03-30T06:18:52.536Z,20.00
2019-03-30T06:21:23.636Z,23.07
2019-03-30T06:23:52.975Z,19.83
2019-03-30T06:26:22.235Z,19.33
2019-03-30T06:28:51.501Z,20.47
2019-03-30T06:31:20.640Z,19.37
2019-03-30T06:33:49.886Z,19.80
2019-03-30T06:36:19.164Z,19.33
2019-03-30T06:38:48.384Z,18.00
2019-03-30T06:41:17.694Z,18.57
2019-03-30T06:43:47.808Z,17.17
2019-03-30T06:46:17.014Z,17.83
2019-03-30T06:48:46.412Z,17.83
2019-03-30T06:51:15.637Z,16.40
2019-03-30T06:53:45.433Z,17.60
2019-03-30T06:56:15.303Z,16.60
2019-03-30T06:58:44.446Z,16.63
2019-03-30T07:01:13.608Z,18.20
2019-03-30T07:03:44.100Z,18.30
2019-03-30T07:06:13.557Z,17.63
2019-03-30T07:08:43.550Z,16.83
2019-03-30T07:11:21.109Z,15.90
2019-03-30T07:13:50.968Z,16.93
2019-03-30T07:16:21.792Z,17.23
2019-03-30T07:18:52.523Z,15.73
2019-03-30T07:21:23.863Z,15.43
2019-03-30T07:23:53.463Z,15.20
2019-03-30T07:26:23.840Z,15.30
2019-03-30T07:28:53.205Z,15.37
2019-03-30T07:31:22.776Z,15.77
2019-03-30T07:33:51.933Z,15.63
2019-03-30T07:36:22.974Z,15.73
2019-03-30T07:38:52.040Z,15.83
2019-03-30T07:41:23.300Z,15.30
2019-03-30T07:43:53.813Z,14.77
2019-03-30T07:46:28.033Z,16.10
2019-03-30T07:48:57.732Z,14.53
2019-03-30T07:51:29.009Z,15.17
2019-03-30T07:54:02.774Z,16.10
2019-03-30T07:56:32.081Z,15.07
2019-03-30T07:59:01.478Z,15.67
2019-03-30T08:01:31.316Z,15.77
2019-03-30T08:04:00.564Z,15.40
2019-03-30T08:06:35.887Z,16.13
2019-03-30T08:09:15.993Z,14.70
2019-03-30T08:11:48.449Z,14.50
2019-03-30T08:14:17.780Z,15.60
2019-03-30T08:16:46.899Z,16.27
2019-03-30T08:19:16.404Z,16.43
2019-03-30T08:21:46.940Z,15.70
2019-03-30T08:24:16.255Z,16.80
2019-03-30T08:26:46.310Z,15.50
2019-03-30T08:29:15.535Z,15.63
2019-03-30T08:31:44.822Z,15.73
2019-03-30T08:34:14.089Z,15.27
2019-03-30T08:36:44.140Z,16.10
2019-03-30T08:39:13.228Z,15.63
2019-03-30T08:41:43.674Z,14.87
2019-03-30T08:44:14.546Z,15.10
2019-03-30T08:46:45.354Z,14.40
2019-03-30T08:49:16.324Z,15.17
2019-03-30T08:51:45.576Z,14.80
2019-03-30T08:54:14.909Z,14.87
2019-03-30T08:56:44.608Z,15.03
2019-03-30T08:59:13.759Z,15.50
2019-03-30T09:01:44.697Z,15.20
2019-03-30T09:04:14.209Z,15.57
2019-03-30T09:06:43.517Z,13.67
2019-03-30T09:09:12.582Z,14.80
2019-03-30T09:11:43.441Z,15.17
2019-03-30T09:14:12.759Z,15.30
2019-03-30T09:16:43.783Z,14.43
2019-03-30T09:19:12.998Z,15.70
2019-03-30T09:21:42.103Z,14.83
2019-03-30T09:24:12.416Z,15.73
2019-03-30T09:26:41.505Z,14.43
2019-03-30T09:29:10.655Z,15.13
2019-03-30T09:31:39.875Z,15.27
2019-03-30T09:34:09.614Z,15.67
2019-03-30T09:36:38.894Z,15.13
2019-03-30T09:39:08.223Z,14.50
2019-03-30T09:41:38.483Z,14.77
2019-03-30T09:44:10.533Z,15.23
2019-03-30T09:46:43.839Z,14.97
2019-03-30T09:49:14.356Z,14.43
2019-03-30T09:51:50.840Z,14.57
2019-03-30T09:54:31.880Z,15.27
2019-03-30T09:57:15.826Z,14.07
2019-03-30T09:59:47.824Z,14.70
2019-03-30T10:02:21.882Z,15.00
2019-03-30T10:04:53.693Z,14.93
2019-03-30T10:07:25.217Z,14.07
2019-03-30T10:09:56.598Z,14.33
2019-03-30T10:12:29.284Z,13.43
2019-03-30T10:14:59.825Z,13.97
2019-03-30T10:17:31.545Z,14.03
2019-03-30T10:20:04.837Z,14.30
2019-03-30T10:22:35.325Z,14.73
2019-03-30T10:25:17.129Z,14.47
2019-03-30T10:27:48.339Z,14.40
2019-03-30T10:30:25.177Z,14.17
2019-03-30T10:32:58.647Z,13.90
2019-03-30T10:35:28.556Z,14.13
2019-03-30T10:37:58.580Z,14.10
2019-03-30T10:40:29.892Z,15.03
2019-03-30T10:43:08.616Z,15.87
2019-03-30T10:45:38.410Z,14.03
2019-03-30T10:48:17.317Z,14.17
2019-03-30T10:50:53.342Z,15.53
2019-03-30T10:53:25.446Z,14.47
2019-03-30T10:55:57.845Z,14.17
2019-03-30T10:58:30.896Z,13.33
2019-03-30T11:01:06.108Z,13.20
2019-03-30T11:03:36.470Z,12.87
2019-03-30T11:06:07.324Z,12.87
2019-03-30T11:08:38.727Z,12.87
2019-03-30T11:11:08.247Z,11.87
2019-03-30T11:13:39.240Z,12.90
2019-03-30T11:16:09.388Z,14.03
2019-03-30T11:18:39.905Z,13.60
2019-03-30T11:21:10.839Z,14.43
2019-03-30T11:23:41.027Z,13.30
2019-03-30T11:26:10.773Z,14.50
2019-03-30T11:28:40.060Z,13.97
2019-03-30T11:31:09.715Z,13.53
2019-03-30T11:33:38.965Z,13.17
2019-03-30T11:36:08.656Z,14.57
2019-03-30T11:38:37.785Z,14.13
2019-03-30T11:41:09.284Z,14.97
2019-03-30T11:43:38.336Z,14.70
2019-03-30T11:46:07.614Z,14.83
2019-03-30T11:48:37.635Z,13.80
2019-03-30T11:51:07.211Z,13.30
2019-03-30T11:53:36.492Z,15.20
2019-03-30T11:56:06.664Z,14.60
2019-03-30T11:58:37.066Z,14.93
2019-03-30T12:01:06.690Z,14.40
2019-03-30T12:03:37.424Z,14.90
2019-03-30T12:06:09.371Z,14.27
2019-03-30T12:08:38.910Z,13.47
2019-03-30T12:11:09.147Z,14.10
2019-03-30T12:13:38.514Z,13.47
2019-03-30T12:16:08.026Z,14.37
2019-03-30T12:18:37.417Z,15.07
2019-03-30T12:21:06.795Z,15.27
2019-03-30T12:23:37.596Z,13.70
2019-03-30T12:26:07.807Z,15.50
2019-03-30T12:28:38.769Z,14.97
2019-03-30T12:31:10.038Z,14.93
2019-03-30T12:33:42.774Z,14.83
2019-03-30T12:36:13.231Z,15.00
2019-03-30T12:38:44.128Z,14.77
2019-03-30T12:41:14.740Z,14.37
2019-03-30T12:43:45.048Z,13.90
2019-03-30T12:46:17.727Z,15.43
2019-03-30T12:48:48.182Z,15.13
2019-03-30T12:51:18.316Z,14.93
2019-03-30T12:56:56.946Z,15.97
2019-03-30T12:59:26.237Z,14.40
2019-03-30T13:01:56.288Z,13.27
2019-03-30T13:04:29.133Z,15.37
2019-03-30T13:07:00.103Z,14.43
2019-03-30T13:09:30.024Z,15.23
2019-03-30T13:11:59.174Z,14.73
2019-03-30T13:14:29.489Z,15.17
2019-03-30T13:16:59.953Z,15.03
2019-03-30T13:19:32.162Z,13.70
2019-03-30T13:22:01.747Z,14.63
2019-03-30T13:24:34.968Z,14.47
2019-03-30T13:27:04.781Z,12.43
2019-03-30T13:29:38.129Z,11.10
2019-03-30T13:32:13.721Z,14.77
2019-03-30T13:34:44.233Z,14.53
2019-03-30T13:37:21.106Z,14.10
2019-03-30T13:39:51.273Z,14.20
2019-03-30T13:42:21.515Z,14.70
2019-03-30T13:44:50.689Z,14.93
2019-03-30T13:47:22.027Z,13.80
2019-03-30T13:49:51.989Z,14.17
2019-03-30T13:52:24.615Z,14.87
2019-03-30T13:54:54.375Z,12.90
2019-03-30T13:57:25.168Z,14.53
2019-03-30T13:59:55.439Z,13.43
2019-03-30T14:02:24.705Z,14.07
2019-03-30T14:04:55.558Z,13.10
2019-03-30T14:07:24.933Z,12.67
2019-03-30T14:09:58.434Z,11.40
2019-03-30T14:12:30.744Z,11.33
2019-03-30T14:15:01.617Z,11.13
2019-03-30T14:17:31.386Z,11.20
2019-03-30T14:20:02.255Z,10.77
2019-03-30T14:22:31.493Z,10.43
2019-03-30T14:25:00.951Z,10.53
2019-03-30T14:27:32.441Z,10.70
2019-03-30T14:30:01.724Z,10.77
2019-03-30T14:32:31.159Z,10.57
2019-03-30T14:35:00.618Z,10.57
2019-03-30T14:37:30.362Z,11.03
2019-03-30T14:40:00.672Z,10.93
2019-03-30T14:42:31.367Z,10.83
2019-03-30T14:45:01.966Z,9.73
2019-03-30T14:47:31.994Z,11.57
2019-03-30T14:50:01.376Z,10.70
2019-03-30T14:52:31.865Z,10.70
2019-03-30T14:55:15.339Z,10.43
2019-03-30T14:57:45.663Z,10.70
2019-03-30T15:00:15.653Z,10.40
2019-03-30T15:02:46.696Z,11.33
2019-03-30T15:05:22.489Z,10.77
2019-03-30T15:07:52.146Z,11.77
2019-03-30T15:10:23.730Z,10.93
2019-03-30T15:12:56.555Z,11.80
2019-03-30T15:15:27.026Z,12.23
2019-03-30T15:17:57.162Z,10.50
2019-03-30T15:20:30.429Z,11.50
2019-03-30T15:23:00.434Z,11.30
2019-03-30T15:25:29.936Z,11.33
2019-03-30T15:28:00.096Z,12.00
2019-03-30T15:30:29.427Z,11.57
2019-03-30T15:33:03.444Z,11.53
2019-03-30T15:35:33.890Z,11.87
2019-03-30T15:38:05.347Z,12.23
2019-03-30T15:40:37.704Z,12.60
2019-03-30T15:43:08.564Z,11.73
2019-03-30T15:45:38.023Z,11.80
2019-03-30T15:48:11.692Z,11.20
2019-03-30T15:50:39.105Z,11.10
2019-03-30T15:53:08.988Z,11.37
2019-03-30T15:55:39.552Z,11.40
2019-03-30T15:58:09.498Z,11.37
2019-03-30T16:00:38.892Z,11.97
2019-03-30T16:03:08.110Z,11.60
2019-03-30T16:05:38.486Z,11.23
2019-03-30T16:08:07.787Z,11.23
2019-03-30T16:10:37.117Z,11.53
2019-03-30T16:13:07.091Z,11.17
2019-03-30T16:15:37.163Z,11.30
2019-03-30T16:18:06.659Z,11.37
2019-03-30T16:20:35.984Z,11.40
2019-03-30T16:23:05.955Z,11.50
2019-03-30T16:25:35.919Z,22.17
2019-03-30T16:28:05.223Z,70.07
2019-03-30T16:30:34.787Z,26.60
2019-03-30T16:33:05.253Z,18.43
2019-03-30T16:35:35.719Z,25.43
2019-03-30T16:38:07.221Z,11.50
2019-03-30T16:40:36.867Z,16.20
2019-03-30T16:43:08.379Z,14.60
2019-03-30T16:45:38.980Z,10.57
2019-03-30T16:48:10.248Z,10.97
2019-03-30T16:50:43.673Z,10.67
2019-03-30T16:53:14.821Z,10.97
2019-03-30T16:55:46.870Z,12.80
2019-03-30T16:58:17.609Z,12.87
2019-03-30T17:00:56.759Z,12.97
2019-03-30T17:03:22.077Z,12.70
2019-03-30T17:05:51.828Z,12.40
2019-03-30T17:08:22.374Z,12.47
2019-03-30T17:10:51.810Z,12.53
2019-03-30T17:13:26.469Z,13.03
2019-03-30T17:16:07.076Z,12.50
2019-03-30T17:18:43.561Z,12.80
2019-03-30T17:21:09.316Z,13.50
2019-03-30T17:23:43.765Z,13.27
2019-03-30T17:26:14.824Z,12.60
2019-03-30T17:28:46.222Z,14.13
2019-03-30T17:31:29.254Z,12.90
2019-03-30T17:34:16.953Z,14.03
2019-03-30T17:36:47.644Z,13.97
2019-03-30T17:39:23.432Z,13.30
2019-03-30T17:41:58.217Z,13.03
2019-03-30T17:44:27.495Z,21.03
2019-03-30T17:47:02.176Z,40.73
2019-03-30T17:49:33.674Z,33.70
2019-03-30T17:52:06.266Z,29.43
2019-03-30T17:54:39.781Z,22.40
2019-03-30T17:57:10.696Z,36.83
2019-03-30T17:59:43.513Z,42.50
2019-03-30T18:02:17.666Z,34.27
2019-03-30T18:04:47.673Z,42.93
2019-03-30T18:07:18.763Z,37.70
2019-03-30T18:09:51.875Z,34.80
2019-03-30T18:12:22.448Z,31.00
2019-03-30T18:14:55.754Z,29.23
2019-03-30T18:17:25.497Z,30.93
2019-03-30T18:19:56.316Z,30.23
2019-03-30T18:22:29.185Z,32.53
2019-03-30T18:25:04.189Z,81.70
2019-03-30T18:27:34.385Z,87.93
2019-03-30T18:30:07.207Z,41.93
2019-03-30T18:32:36.652Z,21.30
2019-03-30T18:35:06.791Z,18.70
2019-03-30T18:37:38.097Z,21.60
2019-03-30T18:40:09.799Z,21.43
2019-03-30T18:42:39.559Z,19.73
2019-03-30T18:45:13.866Z,18.93
2019-03-30T18:47:43.793Z,18.10
2019-03-30T18:50:13.200Z,17.33
2019-03-30T18:52:43.255Z,17.10
2019-03-30T18:55:14.169Z,18.13
2019-03-30T18:57:43.949Z,26.53
2019-03-30T19:00:14.949Z,24.43
2019-03-30T19:02:44.556Z,19.60
2019-03-30T19:05:19.142Z,16.83
2019-03-30T19:07:48.722Z,16.43
2019-03-30T19:10:18.442Z,18.30
2019-03-30T19:12:48.950Z,17.37
2019-03-30T19:15:21.646Z,17.87
2019-03-30T19:17:51.050Z,17.10
2019-03-30T19:20:20.863Z,17.23
2019-03-30T19:22:50.205Z,16.37
2019-03-30T19:25:21.078Z,16.33
2019-03-30T19:27:51.383Z,16.23
2019-03-30T19:30:22.044Z,16.13
2019-03-30T19:32:51.247Z,17.03
2019-03-30T19:35:20.541Z,16.67
2019-03-30T19:37:51.130Z,17.67
2019-03-30T19:40:20.339Z,18.77
2019-03-30T19:42:49.843Z,20.07
2019-03-30T19:45:22.958Z,19.77
2019-03-30T19:47:52.310Z,19.77
2019-03-30T19:50:21.874Z,20.70
2019-03-30T19:52:56.179Z,18.83
2019-03-30T19:55:25.569Z,19.50
2019-03-30T19:57:56.766Z,19.63
2019-03-30T20:00:32.244Z,19.03
2019-03-30T20:03:04.216Z,19.37
2019-03-30T20:05:35.665Z,19.37
2019-03-30T20:08:12.424Z,22.50
2019-03-30T20:10:39.193Z,21.20
2019-03-30T20:13:09.860Z,24.70
2019-03-30T20:15:39.921Z,25.63
2019-03-30T20:18:09.612Z,28.07
2019-03-30T20:20:38.788Z,27.67
2019-03-30T20:23:08.330Z,27.50
2019-03-30T20:25:40.371Z,25.60
2019-03-30T20:28:10.027Z,28.47
2019-03-30T20:30:40.470Z,28.03
2019-03-30T20:33:11.127Z,25.97
2019-03-30T20:35:41.257Z,26.17
2019-03-30T20:38:10.768Z,28.30
2019-03-30T20:40:40.788Z,27.97
2019-03-30T20:43:10.140Z,27.17
2019-03-30T20:45:42.435Z,24.27
2019-03-30T20:48:13.128Z,25.17
2019-03-30T20:50:47.143Z,24.00
2019-03-30T20:53:17.809Z,23.43
2019-03-30T20:55:47.258Z,23.17
2019-03-30T20:58:19.401Z,22.93
2019-03-30T21:00:49.393Z,23.13
2019-03-30T21:03:19.332Z,24.17
2019-03-30T21:05:55.345Z,22.90
2019-03-30T21:08:25.730Z,21.93
2019-03-30T21:10:56.533Z,23.13
2019-03-30T21:13:32.025Z,24.67
2019-03-30T21:16:03.342Z,22.67
2019-03-30T21:18:38.760Z,21.87
2019-03-30T21:21:09.319Z,21.90
2019-03-30T21:23:40.915Z,23.07
2019-03-30T21:26:12.595Z,22.00
2019-03-30T21:28:42.574Z,21.43
2019-03-30T21:31:13.898Z,23.03
2019-03-30T21:33:46.222Z,26.43
2019-03-30T21:36:16.940Z,23.40
2019-03-30T21:38:49.507Z,22.80
2019-03-30T21:41:23.522Z,23.43
2019-03-30T21:44:03.121Z,21.97
2019-03-30T21:46:45.157Z,19.10
2019-03-30T21:49:19.874Z,21.47
2019-03-30T21:51:53.629Z,20.80
2019-03-30T21:54:24.680Z,21.57
2019-03-30T21:56:59.763Z,17.87
2019-03-30T21:59:33.614Z,20.50
2019-03-30T22:02:10.083Z,22.33
2019-03-30T22:04:53.219Z,21.80
2019-03-30T22:07:23.042Z,21.60
2019-03-30T22:09:55.382Z,22.17
2019-03-30T22:12:26.188Z,22.10
2019-03-30T22:14:55.589Z,21.43
2019-03-30T22:17:25.365Z,20.73
2019-03-30T22:19:55.911Z,19.77
2019-03-30T22:22:25.698Z,20.80
2019-03-30T22:24:55.429Z,20.40
2019-03-30T22:27:29.104Z,19.57
2019-03-30T22:29:58.980Z,20.80
2019-03-30T22:32:29.909Z,19.80
2019-03-30T22:35:03.017Z,20.07
2019-03-30T22:37:33.679Z,21.90
2019-03-30T22:40:04.694Z,22.40
2019-03-30T22:42:37.386Z,21.57
2019-03-30T22:45:08.034Z,20.70
2019-03-30T22:47:37.266Z,21.37
2019-03-30T22:50:08.121Z,21.97
2019-03-30T22:52:38.875Z,22.30
2019-03-30T22:55:10.274Z,22.20
2019-03-30T22:57:40.900Z,21.73
2019-03-30T23:00:38.246Z,22.07
2019-03-30T23:02:56.762Z,21.93
2019-03-30T23:05:27.014Z,21.43
2019-03-30T23:07:57.832Z,21.33
2019-03-30T23:10:27.971Z,22.67
2019-03-30T23:13:01.013Z,22.50
2019-03-30T23:15:30.573Z,22.50
2019-03-30T23:18:00.384Z,21.40
2019-03-30T23:20:29.647Z,19.17
2019-03-30T23:23:03.057Z,20.20
2019-03-30T23:25:33.619Z,20.97
2019-03-30T23:28:03.179Z,20.03
2019-03-30T23:30:53.164Z,21.13
2019-03-30T23:33:11.779Z,20.73
2019-03-30T23:35:41.112Z,21.00
2019-03-30T23:38:10.985Z,20.37
2019-03-30T23:40:40.469Z,20.80
2019-03-30T23:43:10.123Z,20.53
2019-03-30T23:45:39.564Z,19.60
2019-03-30T23:48:09.332Z,19.50
2019-03-30T23:50:38.983Z,18.73
2019-03-30T23:53:08.850Z,20.40
2019-03-30T23:55:38.230Z,21.20
2019-03-30T23:58:07.794Z,20.00
